Time;durP1;ratioP1;P1;durP2;ratioP2;P2;SDS_P1;SDS_P2;PMS_P1;PMS_P2;Temp;Humidity;BMP_temperature;BMP_pressure;BME280_temperature;BME280_humidity;BME280_pressure;Samples;Min_cycle;Max_cycle;Signal;HPM_P1;HPM_P2
2021/06/20 00:00:24;;;;;;;8.75;4.60;;;;;;;18.16;100.00;97309.19;5032967;28;20032;-77
2021/06/20 00:02:51;;;;;;;7.55;4.45;;;;;;;18.17;100.00;97289.25;5049551;28;20029;-78
2021/06/20 00:05:20;;;;;;;6.32;4.60;;;;;;;18.28;100.00;97286.34;5049317;28;20033;-77
2021/06/20 00:07:46;;;;;;;8.90;5.18;;;;;;;18.47;100.00;97307.94;5033850;28;20072;-77
2021/06/20 00:10:15;;;;;;;9.88;4.40;;;;;;;18.50;100.00;97291.44;5032951;28;20039;-77
2021/06/20 00:12:41;;;;;;;10.82;5.15;;;;;;;18.50;100.00;97295.97;5048933;28;20127;-78
2021/06/20 00:15:12;;;;;;;11.68;5.75;;;;;;;18.54;100.00;97302.81;5032852;28;20033;-77
2021/06/20 00:17:38;;;;;;;16.35;7.03;;;;;;;18.46;100.00;97281.84;5049232;28;20057;-77
2021/06/20 00:20:05;;;;;;;17.85;6.78;;;;;;;18.56;100.00;97298.94;5032617;28;20030;-77
2021/06/20 00:22:31;;;;;;;17.25;6.60;;;;;;;18.42;100.00;97270.50;5048810;28;20106;-77
2021/06/20 00:24:56;;;;;;;10.82;6.22;;;;;;;18.51;100.00;97285.00;5033190;28;20041;-77
2021/06/20 00:27:22;;;;;;;13.23;6.20;;;;;;;18.58;100.00;97291.50;5033674;28;20087;-78
2021/06/20 00:29:47;;;;;;;16.85;6.53;;;;;;;18.67;100.00;97292.50;5031624;28;20037;-77
2021/06/20 00:32:13;;;;;;;12.20;6.28;;;;;;;18.73;100.00;97291.88;5048578;28;20033;-77
2021/06/20 00:34:39;;;;;;;14.90;7.43;;;;;;;18.53;100.00;97280.28;5032032;28;20061;-78
2021/06/20 00:37:06;;;;;;;14.13;7.47;;;;;;;18.37;100.00;97263.78;5048467;28;20037;-77
2021/06/20 00:39:32;;;;;;;13.57;7.53;;;;;;;18.38;100.00;97277.19;5033283;28;20488;-77
2021/06/20 00:41:57;;;;;;;11.15;7.50;;;;;;;18.36;100.00;97289.19;5032067;28;20041;-78
2021/06/20 00:44:23;;;;;;;17.23;8.02;;;;;;;18.27;100.00;97284.66;5048401;28;20025;-77
2021/06/20 00:46:49;;;;;;;12.88;8.65;;;;;;;18.23;100.00;97285.97;5048700;28;20025;-77
2021/06/20 00:49:14;;;;;;;17.52;7.95;;;;;;;18.17;100.00;97279.28;5033488;28;20040;-78
2021/06/20 00:51:40;;;;;;;12.68;7.75;;;;;;;18.09;100.00;97286.44;5031658;28;20056;-78
2021/06/20 00:54:05;;;;;;;15.60;8.52;;;;;;;18.04;100.00;97278.75;5031453;28;20061;-77
2021/06/20 00:56:33;;;;;;;17.63;9.23;;;;;;;18.09;100.00;97259.38;5048404;28;20025;-77
2021/06/20 00:59:04;;;;;;;12.52;8.82;;;;;;;18.06;100.00;97265.06;5048307;28;20067;-77
2021/06/20 01:01:31;;;;;;;23.60;8.73;;;;;;;18.04;100.00;97267.06;5047928;28;20026;-77
2021/06/20 01:03:57;;;;;;;18.13;8.70;;;;;;;17.92;100.00;97268.25;5032909;28;20021;-77
2021/06/20 01:06:23;;;;;;;16.48;8.50;;;;;;;17.97;100.00;97284.91;5032933;28;20116;-77
2021/06/20 01:08:48;;;;;;;9.35;6.90;;;;;;;17.92;100.00;97271.81;5048440;28;20092;-78
2021/06/20 01:11:14;;;;;;;16.60;7.15;;;;;;;17.85;100.00;97258.03;5048354;28;20075;-77
2021/06/20 01:13:40;;;;;;;12.73;7.20;;;;;;;17.73;100.00;97240.25;5032889;28;20065;-77
2021/06/20 01:16:06;;;;;;;11.70;7.05;;;;;;;17.96;100.00;97275.94;5048051;28;20405;-78
2021/06/20 01:18:31;;;;;;;14.82;7.25;;;;;;;18.05;100.00;97285.03;5032878;28;20033;-77
2021/06/20 01:20:57;;;;;;;18.73;7.25;;;;;;;17.68;100.00;97212.81;5048315;28;20021;-77
2021/06/20 01:23:22;;;;;;;11.45;6.88;;;;;;;17.94;100.00;97250.88;5033235;28;20041;-77
2021/06/20 01:25:49;;;;;;;12.23;6.07;;;;;;;18.16;100.00;97260.47;5047752;28;20044;-77
2021/06/20 01:28:15;;;;;;;13.55;6.78;;;;;;;18.20;100.00;97272.72;5048322;28;20036;-77
2021/06/20 01:30:45;;;;;;;9.93;6.35;;;;;;;18.29;100.00;97271.81;5048098;28;20029;-77
2021/06/20 01:33:12;;;;;;;17.33;6.80;;;;;;;18.35;100.00;97277.50;5031596;28;20053;-77
2021/06/20 01:35:38;;;;;;;14.13;6.65;;;;;;;18.35;100.00;97282.91;5047960;28;20021;-77
2021/06/20 01:38:08;;;;;;;13.95;6.93;;;;;;;18.38;100.00;97281.75;5047542;28;20036;-76
2021/06/20 01:40:34;;;;;;;10.30;6.68;;;;;;;18.24;100.00;97257.91;5031183;28;20397;-77
2021/06/20 01:43:00;;;;;;;10.65;6.32;;;;;;;18.34;100.00;97277.63;5032136;28;20029;-77
2021/06/20 01:45:26;;;;;;;12.52;6.25;;;;;;;18.45;100.00;97285.59;5048168;28;20021;-77
2021/06/20 01:47:54;;;;;;;7.78;6.18;;;;;;;18.39;100.00;97268.06;5030794;28;20021;-78
2021/06/20 01:50:20;;;;;;;17.00;6.50;;;;;;;18.53;100.00;97288.41;5030884;28;20398;-78
2021/06/20 01:52:46;;;;;;;18.80;7.13;;;;;;;18.53;100.00;97291.13;5047512;28;20055;-77
2021/06/20 01:55:14;;;;;;;15.07;7.40;;;;;;;18.44;100.00;97278.44;5032457;28;20416;-77
2021/06/20 01:57:41;;;;;;;15.35;8.18;;;;;;;18.56;100.00;97293.53;5047735;28;20021;-77
2021/06/20 02:00:13;;;;;;;14.18;8.80;;;;;;;18.46;100.00;97278.31;5032303;28;20448;-77
2021/06/20 02:02:39;;;;;;;10.82;7.50;;;;;;;18.45;100.00;97282.00;5031240;28;20033;-77
2021/06/20 02:05:06;;;;;;;13.25;8.00;;;;;;;18.52;100.00;97289.41;5047260;28;20037;-76
2021/06/20 02:07:33;;;;;;;14.88;8.45;;;;;;;18.55;100.00;97293.69;5031548;28;20477;-77
2021/06/20 02:09:58;;;;;;;10.75;7.78;;;;;;;18.49;100.00;97284.28;5049221;28;20029;-78
2021/06/20 02:12:26;;;;;;;15.95;7.65;;;;;;;18.34;100.00;97258.69;5030940;28;20095;-78
2021/06/20 02:14:55;;;;;;;14.93;9.48;;;;;;;18.50;100.00;97286.00;5030888;28;20037;-78
2021/06/20 02:17:28;;;;;;;13.98;7.85;;;;;;;18.54;100.00;97297.41;5030957;28;20021;-78
2021/06/20 02:19:56;;;;;;;14.63;7.65;;;;;;;18.47;100.00;97277.28;5047088;28;20033;-77
2021/06/20 02:22:22;;;;;;;17.75;7.38;;;;;;;18.47;100.00;97283.56;5030757;28;20030;-78
2021/06/20 02:24:48;;;;;;;14.05;8.02;;;;;;;18.34;100.00;97270.38;5030742;28;20606;-78
2021/06/20 02:27:14;;;;;;;17.13;7.72;;;;;;;18.41;100.00;97295.00;5030607;28;20140;-78
2021/06/20 02:29:41;;;;;;;15.98;7.88;;;;;;;18.24;100.00;97257.91;5047229;28;20025;-78
2021/06/20 02:32:07;;;;;;;17.73;7.20;;;;;;;18.28;100.00;97265.56;5030011;28;20112;-78
2021/06/20 02:34:33;;;;;;;12.45;7.43;;;;;;;18.28;100.00;97286.34;5030703;28;20115;-78
2021/06/20 02:36:59;;;;;;;14.15;7.55;;;;;;;18.31;100.00;97275.22;5047528;28;20026;-78
2021/06/20 02:39:24;;;;;;;11.15;7.40;;;;;;;18.31;100.00;97280.63;5030745;28;20049;-78
2021/06/20 02:41:50;;;;;;;9.77;7.13;;;;;;;18.25;100.00;97267.69;5030778;28;20033;-78
2021/06/20 02:44:17;;;;;;;11.35;7.20;;;;;;;18.24;100.00;97268.72;5030748;28;20132;-78
2021/06/20 02:46:43;;;;;;;12.07;6.85;;;;;;;18.27;100.00;97276.53;5034408;28;20061;-78
2021/06/20 02:49:09;;;;;;;13.77;6.93;;;;;;;18.22;100.00;97270.72;5051552;28;20052;-77
2021/06/20 02:51:34;;;;;;;12.27;6.97;;;;;;;18.34;100.00;97285.75;5034562;28;20029;-77
2021/06/20 02:54:00;;;;;;;13.07;6.18;;;;;;;18.34;100.00;97283.06;5050767;28;20480;-77
2021/06/20 02:56:26;;;;;;;8.75;5.70;;;;;;;18.34;100.00;97288.47;5034115;28;20029;-77
2021/06/20 02:58:51;;;;;;;11.52;6.15;;;;;;;18.26;100.00;97266.72;5034185;28;20029;-76
2021/06/20 03:01:17;;;;;;;14.13;5.80;;;;;;;18.46;100.00;97300.81;5034173;28;20029;-77
2021/06/20 03:03:42;;;;;;;10.18;6.05;;;;;;;18.37;100.00;97286.31;5050867;28;20036;-79
2021/06/20 03:06:08;;;;;;;7.55;5.20;;;;;;;18.45;100.00;97304.53;5050749;28;20037;-78
2021/06/20 03:08:33;;;;;;;11.57;6.05;;;;;;;18.24;100.00;97272.25;5034052;28;20025;-77
2021/06/20 03:10:59;;;;;;;11.48;5.65;;;;;;;18.46;100.00;97298.09;5050496;28;20104;-78
2021/06/20 03:13:25;;;;;;;8.77;5.65;;;;;;;18.48;100.00;97277.16;5034024;28;20029;-78
2021/06/20 03:15:50;;;;;;;10.57;5.18;;;;;;;18.53;100.00;97279.44;5050301;28;20029;-78
2021/06/20 03:18:16;;;;;;;7.93;5.75;;;;;;;18.49;100.00;97292.41;5034645;28;20124;-77
2021/06/20 03:20:42;;;;;;;16.40;6.10;;;;;;;18.40;100.00;97263.50;5050428;28;20048;-78
2021/06/20 03:23:10;;;;;;;16.73;5.80;;;;;;;18.59;100.00;97290.53;5033560;28;20566;-78
2021/06/20 03:25:37;;;;;;;10.25;6.25;;;;;;;18.56;100.00;97285.41;5049482;28;20022;-78
2021/06/20 03:28:03;;;;;;;12.00;6.30;;;;;;;18.52;100.00;97275.88;5050435;28;20024;-78
2021/06/20 03:30:29;;;;;;;13.82;5.82;;;;;;;18.51;100.00;97282.31;5033517;28;20021;-78
2021/06/20 03:32:54;;;;;;;11.60;6.07;;;;;;;18.53;100.00;97280.28;5034728;28;20025;-78
2021/06/20 03:35:20;;;;;;;13.85;5.65;;;;;;;18.41;100.00;97246.25;5049751;28;20095;-78
2021/06/20 03:37:45;;;;;;;12.85;6.63;;;;;;;18.37;100.00;97251.09;5050092;28;20083;-78
2021/06/20 03:40:11;;;;;;;9.60;7.22;;;;;;;18.58;100.00;97277.97;5049453;28;20107;-78
2021/06/20 03:42:37;;;;;;;14.52;7.47;;;;;;;18.59;100.00;97298.66;5050131;28;20021;-78
2021/06/20 03:45:05;;;;;;;10.82;6.65;;;;;;;18.56;100.00;97290.81;5049115;28;20508;-78
2021/06/20 03:47:32;;;;;;;20.15;7.47;;;;;;;18.73;100.00;97306.28;5049823;28;20021;-78
2021/06/20 03:49:58;;;;;;;16.50;8.40;;;;;;;18.54;100.00;97265.75;5032944;28;20112;-78
2021/06/20 03:52:23;;;;;;;14.25;8.95;;;;;;;18.64;100.00;97303.63;5049648;28;20116;-78
2021/06/20 03:54:50;;;;;;;13.25;8.48;;;;;;;18.50;100.00;97280.59;5033145;28;20035;-78
2021/06/20 03:57:21;;;;;;;14.68;7.78;;;;;;;18.51;100.00;97268.75;5048724;28;20022;-78
2021/06/20 03:59:46;;;;;;;20.48;8.18;;;;;;;18.88;100.00;97320.19;5049769;28;20022;-78
2021/06/20 04:02:12;;;;;;;19.00;7.50;;;;;;;18.80;100.00;97301.94;5032690;28;20025;-78
2021/06/20 04:04:40;;;;;;;16.85;8.07;;;;;;;18.58;100.00;97272.53;5032455;28;20026;-78
2021/06/20 04:07:07;;;;;;;15.70;7.60;;;;;;;18.87;100.00;97299.47;5049463;28;20021;-77
2021/06/20 04:09:32;;;;;;;16.15;7.53;;;;;;;19.11;100.00;97312.44;5049548;28;20028;-78
2021/06/20 04:11:58;;;;;;;24.60;10.15;;;;;;;19.31;100.00;97320.31;5049112;28;20021;-78
2021/06/20 04:14:24;;;;;;;17.85;8.35;;;;;;;19.10;100.00;97267.38;5032125;28;20036;-77
2021/06/20 04:16:49;;;;;;;20.65;8.55;;;;;;;19.25;100.00;97290.22;5032378;28;20105;-78
2021/06/20 04:19:15;;;;;;;15.90;7.20;;;;;;;19.46;100.00;97312.50;5032036;28;20500;-78
2021/06/20 04:21:41;;;;;;;15.45;6.65;;;;;;;19.65;100.00;97312.34;5048833;28;20026;-78
2021/06/20 04:24:07;;;;;;;16.17;6.28;;;;;;;19.83;100.00;97304.16;5032336;28;20033;-78
2021/06/20 04:26:33;;;;;;;12.98;7.20;;;;;;;19.95;100.00;97322.75;5048810;28;20056;-78
2021/06/20 04:28:58;;;;;;;10.90;6.32;;;;;;;20.07;100.00;97311.63;5032154;28;20029;-78
2021/06/20 04:31:24;;;;;;;8.73;5.32;;;;;;;20.40;100.00;97313.53;5048527;28;20021;-78
2021/06/20 04:33:49;;;;;;;10.70;5.60;;;;;;;20.43;100.00;97305.91;5031902;28;20060;-78
2021/06/20 04:36:16;;;;;;;12.00;5.28;;;;;;;20.57;100.00;97299.03;5031904;28;20025;-78
2021/06/20 04:38:41;;;;;;;11.15;5.32;;;;;;;20.82;100.00;97335.34;5048430;28;20539;-78
2021/06/20 04:41:11;;;;;;;9.05;4.78;;;;;;;20.82;99.92;97319.03;5032195;28;20037;-77
2021/06/20 04:43:45;;;;;;;6.20;4.43;;;;;;;20.63;100.00;97316.56;5031772;28;20087;-78
2021/06/20 04:46:32;;;;;;;4.40;4.00;;;;;;;20.84;98.57;97330.56;5032697;28;20061;-78
2021/06/20 04:49:03;;;;;;;14.95;4.70;;;;;;;20.90;97.85;97306.31;5031613;28;20021;-78
2021/06/20 04:51:30;;;;;;;7.25;4.35;;;;;;;21.16;97.17;97338.91;5032721;28;20400;-78
2021/06/20 04:53:55;;;;;;;10.90;4.55;;;;;;;21.01;96.50;97297.81;5031518;28;20040;-79
2021/06/20 04:56:21;;;;;;;6.63;4.57;;;;;;;21.19;96.30;97311.34;5030998;28;20033;-78
2021/06/20 04:58:46;;;;;;;5.60;4.47;;;;;;;21.30;95.69;97321.06;5031123;28;20057;-79
2021/06/20 05:01:12;;;;;;;10.40;4.85;;;;;;;21.16;96.35;97300.81;5047997;28;20041;-78
2021/06/20 05:03:38;;;;;;;6.10;4.63;;;;;;;21.34;96.77;97317.00;5031006;28;20067;-78
2021/06/20 05:06:03;;;;;;;8.57;3.88;;;;;;;21.17;97.80;97304.34;5031063;28;20040;-78
2021/06/20 05:08:29;;;;;;;10.50;3.63;;;;;;;21.39;95.28;97330.94;5046528;28;20126;-78
2021/06/20 05:10:54;;;;;;;10.18;4.18;;;;;;;21.52;94.62;97344.91;5030940;28;20029;-78
2021/06/20 05:13:21;;;;;;;5.28;4.38;;;;;;;21.50;94.67;97346.97;5031032;28;20068;-78
2021/06/20 05:15:46;;;;;;;5.97;4.10;;;;;;;21.18;93.78;97325.09;5031191;28;20022;-78
2021/06/20 05:18:12;;;;;;;9.10;4.32;;;;;;;21.30;94.61;97331.94;5031330;28;20048;-78
2021/06/20 05:20:38;;;;;;;9.95;4.78;;;;;;;21.37;92.69;97352.88;5030830;28;20029;-78
2021/06/20 05:23:04;;;;;;;15.73;3.97;;;;;;;21.73;92.81;97358.88;5030655;28;20017;-77
2021/06/20 05:25:30;;;;;;;6.78;3.63;;;;;;;21.84;91.67;97353.09;5030128;28;20034;-78
2021/06/20 05:27:55;;;;;;;14.02;4.57;;;;;;;21.85;91.80;97335.75;5028400;28;20021;-76
2021/06/20 05:30:21;;;;;;;19.73;4.60;;;;;;;21.99;90.21;97356.91;5045168;28;20525;-77
2021/06/20 05:32:49;;;;;;;12.70;4.28;;;;;;;22.05;88.74;97352.63;5044909;28;20037;-76
2021/06/20 05:35:15;;;;;;;3.72;3.42;;;;;;;22.08;86.49;97346.84;5044911;28;20072;-76
2021/06/20 05:37:41;;;;;;;6.60;3.97;;;;;;;22.31;84.55;97338.78;5044567;28;20110;-83
2021/06/20 05:40:07;;;;;;;5.97;4.80;;;;;;;22.51;81.40;97331.94;5028174;28;20418;-84
2021/06/20 05:42:33;;;;;;;16.92;9.65;;;;;;;22.40;82.78;97318.66;5045597;28;20025;-78
2021/06/20 05:44:58;;;;;;;6.03;4.05;;;;;;;22.63;83.05;97346.91;5029026;28;20044;-78
2021/06/20 05:47:24;;;;;;;7.78;3.90;;;;;;;22.81;81.23;97353.03;5028810;28;20029;-81
2021/06/20 05:49:50;;;;;;;4.38;3.22;;;;;;;22.13;78.76;97318.06;5028559;28;20104;-79
2021/06/20 05:52:15;;;;;;;6.28;4.45;;;;;;;22.35;78.64;97315.63;5029076;28;20477;-79
2021/06/20 05:54:41;;;;;;;7.40;3.40;;;;;;;22.58;78.67;97305.66;5028875;28;20422;-80
2021/06/20 05:57:07;;;;;;;7.05;3.40;;;;;;;22.83;79.32;97326.41;5028486;28;20118;-89
2021/06/20 05:59:32;;;;;;;5.13;3.22;;;;;;;22.56;78.34;97303.13;5047411;28;20096;-79
2021/06/20 06:01:58;;;;;;;6.72;3.90;;;;;;;22.37;79.69;97341.69;5045644;28;20045;-86
2021/06/20 06:04:24;;;;;;;12.68;7.43;;;;;;;22.38;80.23;97320.72;5030332;28;20029;-85
2021/06/20 06:06:50;;;;;;;29.65;19.02;;;;;;;22.32;82.66;97305.94;5029166;28;20029;-90
2021/06/20 06:09:15;;;;;;;20.23;16.45;;;;;;;22.41;79.18;97320.38;5028326;28;20390;-83
2021/06/20 06:11:41;;;;;;;17.00;12.52;;;;;;;23.18;77.00;97327.78;5027970;28;20048;-77
2021/06/20 06:14:06;;;;;;;13.13;6.03;;;;;;;24.19;71.51;97312.06;5028828;28;20124;-79
2021/06/20 06:16:32;;;;;;;25.52;5.07;;;;;;;23.71;69.89;97295.03;5044148;28;20434;-76
2021/06/20 06:18:57;;;;;;;7.15;4.90;;;;;;;23.84;71.02;97305.31;5027738;28;20087;-76
2021/06/20 06:21:23;;;;;;;8.20;3.65;;;;;;;24.36;71.11;97326.44;5031800;28;20033;-76
2021/06/20 06:23:48;;;;;;;6.63;3.35;;;;;;;24.23;68.38;97306.03;5048152;28;20045;-87
2021/06/20 06:26:14;;;;;;;7.43;2.90;;;;;;;24.19;67.84;97312.91;5032906;28;20049;-87
2021/06/20 06:28:39;;;;;;;3.10;2.80;;;;;;;24.14;67.71;97301.69;5032490;28;20390;-84
2021/06/20 06:31:05;;;;;;;6.07;2.90;;;;;;;24.01;67.79;97309.63;5031833;28;20414;-84
2021/06/20 06:33:31;;;;;;;12.35;5.20;;;;;;;24.86;66.75;97332.03;5031973;28;20037;-77
2021/06/20 06:35:56;;;;;;;5.00;3.78;;;;;;;25.58;62.77;97329.38;5031061;28;20468;-76
2021/06/20 06:38:22;;;;;;;7.30;2.78;;;;;;;26.29;60.75;97296.34;5031071;28;20033;-77
2021/06/20 06:40:48;;;;;;;3.47;2.80;;;;;;;25.93;60.26;97322.16;5031745;28;20053;-78
2021/06/20 06:43:14;;;;;;;3.80;2.95;;;;;;;25.40;63.57;97331.69;5031293;28;20635;-77
2021/06/20 06:45:39;;;;;;;6.63;2.60;;;;;;;25.39;63.60;97329.97;5048350;28;20389;-77
2021/06/20 06:48:06;;;;;;;3.47;2.78;;;;;;;24.84;61.82;97297.69;5048270;28;20033;-77
2021/06/20 06:50:31;;;;;;;5.85;3.10;;;;;;;24.39;64.53;97301.44;5048956;28;20443;-77
2021/06/20 06:52:57;;;;;;;3.13;2.53;;;;;;;24.23;65.32;97294.25;5031791;28;20120;-77
2021/06/20 06:55:22;;;;;;;5.18;2.80;;;;;;;24.87;65.23;97308.25;5033407;28;20477;-77
2021/06/20 06:57:48;;;;;;;4.75;2.70;;;;;;;28.67;53.25;97315.38;5033376;28;20053;-78
2021/06/20 07:00:14;;;;;;;5.53;3.00;;;;;;;29.88;47.39;97333.81;5048551;28;20504;-77
2021/06/20 07:02:40;;;;;;;4.50;3.15;;;;;;;29.38;47.45;97306.06;5031869;28;20028;-77
2021/06/20 07:05:07;;;;;;;3.30;3.00;;;;;;;28.78;48.81;97293.53;5031325;28;20037;-78
2021/06/20 07:07:33;;;;;;;4.50;3.53;;;;;;;28.20;51.22;97306.28;5041367;28;20087;-77
2021/06/20 07:09:59;;;;;;;9.18;5.78;;;;;;;27.83;53.62;97323.34;5031420;28;20547;-78
2021/06/20 07:12:27;;;;;;;9.80;6.97;;;;;;;27.38;55.57;97297.38;5031249;28;20099;-78
2021/06/20 07:14:52;;;;;;;3.30;3.00;;;;;;;27.15;54.89;97314.22;5033034;28;20053;-78
2021/06/20 07:17:18;;;;;;;4.95;4.28;;;;;;;26.82;55.34;97318.69;5031266;28;20534;-78
2021/06/20 07:19:43;;;;;;;9.27;3.65;;;;;;;26.80;56.60;97313.41;5031627;28;20033;-78
2021/06/20 07:22:09;;;;;;;4.43;2.88;;;;;;;26.82;57.87;97318.69;5047840;28;20037;-78
2021/06/20 07:24:34;;;;;;;11.13;4.60;;;;;;;26.38;58.40;97288.81;5030460;28;20021;-78
2021/06/20 07:27:00;;;;;;;6.18;3.50;;;;;;;26.39;59.17;97313.28;5031218;28;20038;-78
2021/06/20 07:29:26;;;;;;;7.28;3.65;;;;;;;26.13;58.67;97314.94;5031118;28;20129;-78
2021/06/20 07:31:51;;;;;;;2.67;2.40;;;;;;;26.38;57.32;97316.25;5047138;28;20500;-78
2021/06/20 07:34:17;;;;;;;6.88;2.90;;;;;;;26.38;57.84;97308.88;5030903;28;20060;-78
2021/06/20 07:36:43;;;;;;;4.10;2.78;;;;;;;27.27;55.52;97315.31;5031947;28;20052;-79
2021/06/20 07:39:09;;;;;;;3.78;2.90;;;;;;;28.20;53.22;97311.78;5031318;28;20057;-79
2021/06/20 07:41:35;;;;;;;6.90;2.42;;;;;;;29.31;50.00;97302.50;5031517;28;20036;-79
2021/06/20 07:44:00;;;;;;;3.58;2.35;;;;;;;31.47;44.27;97316.41;5047997;28;20095;-79
2021/06/20 07:46:27;;;;;;;4.05;2.40;;;;;;;33.48;40.15;97308.84;5031214;28;20144;-79
2021/06/20 07:48:52;;;;;;;2.25;1.95;;;;;;;34.73;36.10;97320.69;5031160;28;20025;-79
2021/06/20 07:51:18;;;;;;;5.50;2.58;;;;;;;34.19;35.78;97290.84;5047544;28;20026;-79
2021/06/20 07:53:44;;;;;;;3.97;1.85;;;;;;;33.85;37.46;97311.28;5047938;28;20034;-79
2021/06/20 07:56:09;;;;;;;5.93;2.40;;;;;;;31.70;39.77;97307.44;5031466;28;20033;-80
2021/06/20 07:58:35;;;;;;;2.72;2.22;;;;;;;29.96;43.88;97315.09;5047532;28;20087;-77
2021/06/20 08:01:00;;;;;;;7.53;2.60;;;;;;;28.96;46.15;97274.41;5032107;28;20116;-78
2021/06/20 08:03:27;;;;;;;5.93;3.63;;;;;;;28.90;46.17;97300.06;5047233;28;20475;-77
2021/06/20 08:05:52;;;;;;;4.30;2.65;;;;;;;29.09;47.99;97303.81;5030389;28;20463;-78
2021/06/20 08:08:19;;;;;;;4.82;4.15;;;;;;;29.03;45.45;97294.53;5030438;28;20034;-77
2021/06/20 08:10:44;;;;;;;2.85;2.30;;;;;;;28.87;46.46;97322.53;5030614;28;20087;-76
2021/06/20 08:13:10;;;;;;;3.45;2.85;;;;;;;29.05;48.38;97319.94;5031193;28;20033;-76
2021/06/20 08:15:36;;;;;;;9.25;2.30;;;;;;;29.45;47.84;97320.66;5047802;28;20060;-76
2021/06/20 08:18:01;;;;;;;3.58;2.20;;;;;;;29.96;46.48;97322.53;5047488;28;20084;-76
2021/06/20 08:20:27;;;;;;;4.63;2.60;;;;;;;30.40;46.64;97333.47;5047162;28;20033;-77
2021/06/20 08:22:52;;;;;;;3.10;1.83;;;;;;;30.79;42.41;97312.09;5030855;28;20120;-77
2021/06/20 08:25:21;;;;;;;3.53;2.22;;;;;;;31.81;41.88;97328.75;5030632;28;20191;-77
2021/06/20 08:27:47;;;;;;;3.63;1.95;;;;;;;32.30;39.25;97324.88;5030614;28;20112;-76
2021/06/20 08:30:13;;;;;;;1.63;1.52;;;;;;;32.36;37.98;97317.53;5047549;28;20113;-77
2021/06/20 08:32:38;;;;;;;8.00;6.10;;;;;;;32.01;39.25;97343.16;5047103;28;20040;-77
2021/06/20 08:35:05;;;;;;;2.03;1.83;;;;;;;32.78;38.98;97312.78;5032621;28;20025;-77
2021/06/20 08:37:31;;;;;;;2.97;2.05;;;;;;;33.46;37.79;97344.31;5047256;28;20140;-77
2021/06/20 08:39:57;;;;;;;4.15;1.75;;;;;;;35.11;33.40;97324.63;5031063;28;20053;-78
2021/06/20 08:42:23;;;;;;;2.20;1.75;;;;;;;35.28;32.40;97340.22;5047291;28;20086;-78
2021/06/20 08:44:49;;;;;;;6.70;2.10;;;;;;;34.19;34.65;97315.84;5047233;28;20033;-78
2021/06/20 08:47:16;;;;;;;5.10;2.00;;;;;;;32.57;37.42;97336.38;5047017;28;20421;-78
2021/06/20 08:49:43;;;;;;;4.63;2.63;;;;;;;31.98;38.82;97340.88;5046274;28;20582;-77
2021/06/20 08:52:09;;;;;;;5.43;2.30;;;;;;;31.71;39.73;97345.09;5029921;28;20029;-77
2021/06/20 08:54:37;;;;;;;9.40;4.13;;;;;;;31.19;41.59;97341.03;5046977;28;20132;-77
2021/06/20 08:57:03;;;;;;;5.05;2.10;;;;;;;31.04;41.80;97340.56;5031687;28;20084;-77
2021/06/20 08:59:29;;;;;;;13.52;2.78;;;;;;;30.59;42.41;97317.81;5046642;28;20106;-77
2021/06/20 09:01:56;;;;;;;4.32;3.40;;;;;;;29.61;43.57;97316.56;5046760;28;20469;-77
2021/06/20 09:04:31;;;;;;;3.63;1.90;;;;;;;29.88;44.08;97311.75;5046741;28;20025;-77
2021/06/20 09:07:05;;;;;;;3.88;2.80;;;;;;;30.22;44.25;97327.84;5030333;28;20397;-77
2021/06/20 09:09:33;;;;;;;17.80;13.90;;;;;;;29.26;45.61;97309.72;5030724;28;20485;-77
2021/06/20 09:12:11;;;;;;;4.70;2.78;;;;;;;29.41;44.72;97327.66;5046482;28;20091;-77
2021/06/20 09:14:49;;;;;;;5.30;3.30;;;;;;;29.22;46.73;97324.97;5029771;28;20496;-77
2021/06/20 09:17:28;;;;;;;2.30;2.10;;;;;;;29.14;47.64;97319.69;5046761;28;20087;-77
2021/06/20 09:20:00;;;;;;;6.22;3.55;;;;;;;28.75;46.17;97321.50;5029933;28;20033;-77
2021/06/20 09:22:27;;;;;;;5.15;2.58;;;;;;;27.88;48.86;97327.16;5029906;28;20036;-76
2021/06/20 09:25:00;;;;;;;7.13;2.78;;;;;;;27.85;48.72;97299.22;5029603;28;20025;-77
2021/06/20 09:27:25;;;;;;;8.68;4.63;;;;;;;28.21;49.45;97323.66;5030873;28;20029;-77
2021/06/20 09:29:51;;;;;;;25.08;15.77;;;;;;;27.91;49.91;97257.13;5046866;28;20032;-76
2021/06/20 09:32:17;;;;;;;5.40;3.10;;;;;;;29.13;49.01;97327.13;5032234;28;20408;-76
2021/06/20 09:34:44;;;;;;;5.60;2.42;;;;;;;29.95;46.68;97331.88;5030601;28;20021;-77
2021/06/20 09:37:11;;;;;;;4.30;1.80;;;;;;;29.87;44.08;97296.28;5030878;28;20036;-77
2021/06/20 09:39:37;;;;;;;4.88;2.00;;;;;;;30.00;43.22;97297.03;5030669;28;20559;-78
2021/06/20 09:42:08;;;;;;;4.78;2.45;;;;;;;30.03;44.24;97317.81;5047463;28;20497;-76
2021/06/20 09:44:41;;;;;;;5.95;1.83;;;;;;;29.48;45.19;97306.44;5030249;28;20039;-76
2021/06/20 09:47:11;;;;;;;2.90;2.47;;;;;;;28.91;46.68;97300.91;5030503;28;20029;-76
2021/06/20 09:49:37;;;;;;;3.85;1.77;;;;;;;30.73;42.08;97302.81;5030345;28;20037;-77
2021/06/20 09:52:03;;;;;;;11.25;2.42;;;;;;;32.88;39.00;97288.94;5030768;28;20540;-76
2021/06/20 09:54:31;;;;;;;10.85;2.92;;;;;;;34.93;34.83;97311.84;5030222;28;20041;-76
2021/06/20 09:56:57;;;;;;;8.93;4.03;;;;;;;36.13;34.38;97322.09;5030722;28;20038;-77
2021/06/20 09:59:32;;;;;;;5.05;2.20;;;;;;;36.02;32.77;97292.41;5032040;28;20029;-77
2021/06/20 10:02:09;;;;;;;1.83;1.50;;;;;;;37.70;31.50;97307.41;5030611;28;20086;-78
2021/06/20 10:04:38;;;;;;;1.95;1.48;;;;;;;38.75;28.75;97301.22;5047436;28;20090;-78
2021/06/20 10:07:05;;;;;;;2.60;1.40;;;;;;;39.43;28.28;97290.50;5039248;28;20091;-78
2021/06/20 10:09:35;;;;;;;2.38;1.42;;;;;;;37.88;30.05;97302.16;5030476;28;20037;-78
2021/06/20 10:12:03;;;;;;;9.80;1.80;;;;;;;37.17;30.57;97281.44;5047502;28;20396;-78
2021/06/20 10:14:30;;;;;;;1.27;1.17;;;;;;;38.93;28.31;97291.44;5030388;28;20064;-78
2021/06/20 10:17:02;;;;;;;4.43;2.40;;;;;;;39.99;27.59;97294.72;5046666;28;20109;-78
2021/06/20 10:19:30;;;;;;;1.60;1.50;;;;;;;37.67;28.65;97286.44;5047111;28;20561;-78
2021/06/20 10:22:08;;;;;;;10.05;6.55;;;;;;;35.62;32.59;97299.22;5046789;28;20457;-78
2021/06/20 10:24:43;;;;;;;7.07;2.42;;;;;;;35.61;33.33;97302.25;5030121;28;20029;-78
2021/06/20 10:27:09;;;;;;;7.82;2.47;;;;;;;35.99;31.70;97254.78;5031398;28;20121;-78
2021/06/20 10:29:37;;;;;;;2.70;1.55;;;;;;;35.53;33.81;97295.19;5030145;28;20047;-78
2021/06/20 10:32:17;;;;;;;8.35;2.90;;;;;;;34.79;33.17;97282.72;5046370;28;20029;-78
2021/06/20 10:34:57;;;;;;;9.93;1.90;;;;;;;34.19;36.13;97285.28;5046482;28;20065;-78
2021/06/20 10:37:23;;;;;;;2.67;1.70;;;;;;;33.37;36.79;97272.81;5029910;28;20073;-78
2021/06/20 10:39:53;;;;;;;2.45;1.77;;;;;;;33.39;37.30;97277.03;5029625;28;20131;-78
2021/06/20 10:42:20;;;;;;;7.65;2.65;;;;;;;33.12;37.84;97262.03;5046928;28;20508;-78
2021/06/20 10:44:49;;;;;;;2.28;1.80;;;;;;;32.61;38.23;97273.84;5046503;28;20075;-78
2021/06/20 10:47:28;;;;;;;1.85;1.70;;;;;;;32.10;40.23;97261.50;5030144;28;20087;-79
2021/06/20 10:49:59;;;;;;;2.90;2.10;;;;;;;30.51;43.05;97226.97;5029808;28;20518;-77
2021/06/20 10:52:25;;;;;;;3.13;2.40;;;;;;;30.12;43.55;97230.91;5030138;28;20033;-77
2021/06/20 10:55:07;;;;;;;5.63;2.20;;;;;;;30.05;45.02;97228.22;5029789;28;20030;-78
2021/06/20 10:57:32;;;;;;;2.88;2.22;;;;;;;29.87;46.42;97219.06;5046883;28;20025;-77
2021/06/20 10:59:59;;;;;;;6.95;1.92;;;;;;;30.04;44.45;97218.25;5029976;28;20087;-77
2021/06/20 11:02:31;;;;;;;4.28;2.05;;;;;;;30.40;45.02;97234.06;5047123;28;20032;-77
2021/06/20 11:04:57;;;;;;;6.38;2.42;;;;;;;30.06;45.34;97223.53;5030239;28;20108;-77
2021/06/20 11:07:24;;;;;;;9.05;3.67;;;;;;;30.03;45.91;97207.44;5033797;28;20556;-78
2021/06/20 11:09:49;;;;;;;2.10;1.90;;;;;;;29.52;43.60;97183.63;5033640;28;20412;-78
2021/06/20 11:12:15;;;;;;;2.15;1.77;;;;;;;30.01;43.72;97212.34;5050744;28;20025;-78
2021/06/20 11:14:43;;;;;;;2.17;1.98;;;;;;;32.12;39.81;97214.19;5050397;28;20021;-78
2021/06/20 11:17:08;;;;;;;2.70;2.17;;;;;;;33.66;36.38;97219.88;5034946;28;20017;-78
2021/06/20 11:19:34;;;;;;;2.40;1.90;;;;;;;34.88;34.55;97221.94;5033333;28;20014;-78
2021/06/20 11:22:02;;;;;;;3.25;1.90;;;;;;;36.20;32.87;97219.63;5033929;28;20033;-78
2021/06/20 11:24:39;;;;;;;3.67;2.10;;;;;;;36.23;33.57;97214.38;5033303;28;20117;-78